sensor_id;sensor_type;location;lat;lon;timestamp;temperature;humidity
72650;SHT31;61467;50.674;4.618;2023-11-21T00:01:31;10.63;84.12
72650;SHT31;61467;50.674;4.618;2023-11-21T00:03:59;10.67;84.25
72650;SHT31;61467;50.674;4.618;2023-11-21T00:06:26;10.58;84.32
72650;SHT31;61467;50.674;4.618;2023-11-21T00:08:56;10.55;84.50
72650;SHT31;61467;50.674;4.618;2023-11-21T00:11:24;10.71;84.26
72650;SHT31;61467;50.674;4.618;2023-11-21T00:13:51;10.68;83.90
72650;SHT31;61467;50.674;4.618;2023-11-21T00:16:17;10.68;84.16
72650;SHT31;61467;50.674;4.618;2023-11-21T00:18:44;10.64;84.09
72650;SHT31;61467;50.674;4.618;2023-11-21T00:21:12;10.53;84.53
72650;SHT31;61467;50.674;4.618;2023-11-21T00:23:39;10.47;84.64
72650;SHT31;61467;50.674;4.618;2023-11-21T00:26:06;10.54;84.67
72650;SHT31;61467;50.674;4.618;2023-11-21T00:28:34;10.54;84.79
72650;SHT31;61467;50.674;4.618;2023-11-21T00:31:01;10.53;84.16
72650;SHT31;61467;50.674;4.618;2023-11-21T00:33:28;10.53;84.63
72650;SHT31;61467;50.674;4.618;2023-11-21T00:35:54;10.41;84.86
72650;SHT31;61467;50.674;4.618;2023-11-21T00:38:22;10.48;84.77
72650;SHT31;61467;50.674;4.618;2023-11-21T00:40:48;10.55;84.53
72650;SHT31;61467;50.674;4.618;2023-11-21T00:43:15;10.64;84.41
72650;SHT31;61467;50.674;4.618;2023-11-21T00:45:44;10.57;84.24
72650;SHT31;61467;50.674;4.618;2023-11-21T00:48:10;10.58;84.35
72650;SHT31;61467;50.674;4.618;2023-11-21T00:50:39;10.64;84.27
72650;SHT31;61467;50.674;4.618;2023-11-21T00:53:06;10.51;84.63
72650;SHT31;61467;50.674;4.618;2023-11-21T00:55:33;10.72;84.45
72650;SHT31;61467;50.674;4.618;2023-11-21T00:58:00;10.47;84.69
72650;SHT31;61467;50.674;4.618;2023-11-21T01:00:29;10.48;84.85
72650;SHT31;61467;50.674;4.618;2023-11-21T01:02:57;10.34;85.14
72650;SHT31;61467;50.674;4.618;2023-11-21T01:05:24;10.40;85.21
72650;SHT31;61467;50.674;4.618;2023-11-21T01:07:51;10.51;84.94
72650;SHT31;61467;50.674;4.618;2023-11-21T01:10:18;10.58;84.75
72650;SHT31;61467;50.674;4.618;2023-11-21T01:12:45;10.65;84.41
72650;SHT31;61467;50.674;4.618;2023-11-21T01:15:11;10.51;84.74
72650;SHT31;61467;50.674;4.618;2023-11-21T01:17:38;10.65;84.48
72650;SHT31;61467;50.674;4.618;2023-11-21T01:20:08;10.68;84.30
72650;SHT31;61467;50.674;4.618;2023-11-21T01:22:38;10.64;84.35
72650;SHT31;61467;50.674;4.618;2023-11-21T01:25:05;10.64;84.24
72650;SHT31;61467;50.674;4.618;2023-11-21T01:27:33;10.63;84.46
72650;SHT31;61467;50.674;4.618;2023-11-21T01:30:00;10.63;84.34
72650;SHT31;61467;50.674;4.618;2023-11-21T01:32:27;10.61;84.20
72650;SHT31;61467;50.674;4.618;2023-11-21T01:34:54;10.64;84.06
72650;SHT31;61467;50.674;4.618;2023-11-21T01:37:22;10.71;84.04
72650;SHT31;61467;50.674;4.618;2023-11-21T01:39:49;10.65;84.03
72650;SHT31;61467;50.674;4.618;2023-11-21T01:42:16;10.54;84.20
72650;SHT31;61467;50.674;4.618;2023-11-21T01:44:44;10.60;84.14
72650;SHT31;61467;50.674;4.618;2023-11-21T01:47:12;10.51;84.33
72650;SHT31;61467;50.674;4.618;2023-11-21T01:49:43;10.65;84.07
72650;SHT31;61467;50.674;4.618;2023-11-21T01:52:11;10.51;84.17
72650;SHT31;61467;50.674;4.618;2023-11-21T01:54:41;10.54;84.08
72650;SHT31;61467;50.674;4.618;2023-11-21T01:57:08;10.58;83.93
72650;SHT31;61467;50.674;4.618;2023-11-21T01:59:36;10.54;84.12
72650;SHT31;61467;50.674;4.618;2023-11-21T02:02:03;10.48;84.06
72650;SHT31;61467;50.674;4.618;2023-11-21T02:04:32;10.61;84.08
72650;SHT31;61467;50.674;4.618;2023-11-21T02:06:59;10.64;83.74
72650;SHT31;61467;50.674;4.618;2023-11-21T02:09:26;10.63;83.85
72650;SHT31;61467;50.674;4.618;2023-11-21T02:11:56;10.57;83.92
72650;SHT31;61467;50.674;4.618;2023-11-21T02:14:24;10.57;84.06
72650;SHT31;61467;50.674;4.618;2023-11-21T02:16:52;10.61;83.87
72650;SHT31;61467;50.674;4.618;2023-11-21T02:19:20;10.58;83.91
72650;SHT31;61467;50.674;4.618;2023-11-21T02:21:49;10.48;84.39
72650;SHT31;61467;50.674;4.618;2023-11-21T02:24:19;10.51;84.20
72650;SHT31;61467;50.674;4.618;2023-11-21T02:26:46;10.60;84.05
72650;SHT31;61467;50.674;4.618;2023-11-21T02:29:13;10.57;84.10
72650;SHT31;61467;50.674;4.618;2023-11-21T02:31:43;10.65;83.69
72650;SHT31;61467;50.674;4.618;2023-11-21T02:34:15;10.57;83.98
72650;SHT31;61467;50.674;4.618;2023-11-21T02:36:42;10.40;84.47
72650;SHT31;61467;50.674;4.618;2023-11-21T02:39:10;10.58;84.23
72650;SHT31;61467;50.674;4.618;2023-11-21T02:41:40;10.44;84.38
72650;SHT31;61467;50.674;4.618;2023-11-21T02:44:07;10.48;84.36
72650;SHT31;61467;50.674;4.618;2023-11-21T02:46:35;10.58;84.28
72650;SHT31;61467;50.674;4.618;2023-11-21T02:49:03;10.53;84.14
72650;SHT31;61467;50.674;4.618;2023-11-21T02:51:31;10.63;84.05
72650;SHT31;61467;50.674;4.618;2023-11-21T02:53:58;10.53;84.04
72650;SHT31;61467;50.674;4.618;2023-11-21T02:56:28;10.55;83.90
72650;SHT31;61467;50.674;4.618;2023-11-21T02:58:57;10.54;84.48
72650;SHT31;61467;50.674;4.618;2023-11-21T03:01:24;10.40;84.56
72650;SHT31;61467;50.674;4.618;2023-11-21T03:03:50;10.38;84.63
72650;SHT31;61467;50.674;4.618;2023-11-21T03:06:19;10.51;84.10
72650;SHT31;61467;50.674;4.618;2023-11-21T03:08:46;10.41;84.44
72650;SHT31;61467;50.674;4.618;2023-11-21T03:11:14;10.51;84.08
72650;SHT31;61467;50.674;4.618;2023-11-21T03:13:41;10.47;84.19
72650;SHT31;61467;50.674;4.618;2023-11-21T03:16:10;10.45;84.16
72650;SHT31;61467;50.674;4.618;2023-11-21T03:18:37;10.44;84.19
72650;SHT31;61467;50.674;4.618;2023-11-21T03:21:04;10.43;84.13
72650;SHT31;61467;50.674;4.618;2023-11-21T03:23:31;10.44;84.11
72650;SHT31;61467;50.674;4.618;2023-11-21T03:25:57;10.44;83.98
72650;SHT31;61467;50.674;4.618;2023-11-21T03:28:25;10.44;84.34
72650;SHT31;61467;50.674;4.618;2023-11-21T03:30:52;10.44;83.98
72650;SHT31;61467;50.674;4.618;2023-11-21T03:33:20;10.36;84.32
72650;SHT31;61467;50.674;4.618;2023-11-21T03:35:48;10.36;84.19
72650;SHT31;61467;50.674;4.618;2023-11-21T03:38:15;10.32;84.58
72650;SHT31;61467;50.674;4.618;2023-11-21T03:40:42;10.32;84.61
72650;SHT31;61467;50.674;4.618;2023-11-21T03:43:09;10.41;84.21
72650;SHT31;61467;50.674;4.618;2023-11-21T03:45:36;10.34;84.25
72650;SHT31;61467;50.674;4.618;2023-11-21T03:48:03;10.36;84.32
72650;SHT31;61467;50.674;4.618;2023-11-21T03:50:31;10.54;83.94
72650;SHT31;61467;50.674;4.618;2023-11-21T03:52:58;10.51;83.82
72650;SHT31;61467;50.674;4.618;2023-11-21T03:55:25;10.44;84.02
72650;SHT31;61467;50.674;4.618;2023-11-21T03:57:52;10.54;83.70
72650;SHT31;61467;50.674;4.618;2023-11-21T04:00:19;10.55;83.72
72650;SHT31;61467;50.674;4.618;2023-11-21T04:02:46;10.54;83.79
72650;SHT31;61467;50.674;4.618;2023-11-21T04:05:13;10.53;83.63
72650;SHT31;61467;50.674;4.618;2023-11-21T04:07:41;10.63;83.70
72650;SHT31;61467;50.674;4.618;2023-11-21T04:10:09;10.54;83.82
72650;SHT31;61467;50.674;4.618;2023-11-21T04:12:38;10.58;83.60
72650;SHT31;61467;50.674;4.618;2023-11-21T04:15:05;10.50;83.89
72650;SHT31;61467;50.674;4.618;2023-11-21T04:17:34;10.47;83.88
72650;SHT31;61467;50.674;4.618;2023-11-21T04:20:02;10.53;83.86
72650;SHT31;61467;50.674;4.618;2023-11-21T04:22:33;10.53;83.75
72650;SHT31;61467;50.674;4.618;2023-11-21T04:25:02;10.58;83.63
72650;SHT31;61467;50.674;4.618;2023-11-21T04:27:28;10.63;83.60
72650;SHT31;61467;50.674;4.618;2023-11-21T04:29:56;10.58;83.65
72650;SHT31;61467;50.674;4.618;2023-11-21T04:32:22;10.57;83.80
72650;SHT31;61467;50.674;4.618;2023-11-21T04:34:49;10.58;83.71
72650;SHT31;61467;50.674;4.618;2023-11-21T04:37:16;10.63;83.50
72650;SHT31;61467;50.674;4.618;2023-11-21T04:39:43;10.58;83.51
72650;SHT31;61467;50.674;4.618;2023-11-21T04:42:13;10.64;83.44
72650;SHT31;61467;50.674;4.618;2023-11-21T04:44:40;10.57;83.61
72650;SHT31;61467;50.674;4.618;2023-11-21T04:47:07;10.53;83.80
72650;SHT31;61467;50.674;4.618;2023-11-21T04:49:34;10.51;83.88
72650;SHT31;61467;50.674;4.618;2023-11-21T04:52:01;10.54;83.80
72650;SHT31;61467;50.674;4.618;2023-11-21T04:54:29;10.51;83.75
72650;SHT31;61467;50.674;4.618;2023-11-21T04:56:56;10.41;84.04
72650;SHT31;61467;50.674;4.618;2023-11-21T04:59:25;10.48;84.12
72650;SHT31;61467;50.674;4.618;2023-11-21T05:01:52;10.43;84.23
72650;SHT31;61467;50.674;4.618;2023-11-21T05:04:19;10.48;84.18
72650;SHT31;61467;50.674;4.618;2023-11-21T05:06:47;10.53;84.14
72650;SHT31;61467;50.674;4.618;2023-11-21T05:09:14;10.55;83.86
72650;SHT31;61467;50.674;4.618;2023-11-21T05:11:41;10.48;84.11
72650;SHT31;61467;50.674;4.618;2023-11-21T05:14:08;10.57;84.07
72650;SHT31;61467;50.674;4.618;2023-11-21T05:16:37;10.47;84.28
72650;SHT31;61467;50.674;4.618;2023-11-21T05:19:04;10.51;84.07
72650;SHT31;61467;50.674;4.618;2023-11-21T05:21:31;10.54;84.19
72650;SHT31;61467;50.674;4.618;2023-11-21T05:23:58;10.57;84.19
72650;SHT31;61467;50.674;4.618;2023-11-21T05:26:25;10.47;84.33
72650;SHT31;61467;50.674;4.618;2023-11-21T05:28:52;10.53;84.30
72650;SHT31;61467;50.674;4.618;2023-11-21T05:31:19;10.51;84.38
72650;SHT31;61467;50.674;4.618;2023-11-21T05:33:47;10.55;84.09
72650;SHT31;61467;50.674;4.618;2023-11-21T05:36:14;10.63;84.14
72650;SHT31;61467;50.674;4.618;2023-11-21T05:38:40;10.53;84.25
72650;SHT31;61467;50.674;4.618;2023-11-21T05:41:08;10.55;84.33
72650;SHT31;61467;50.674;4.618;2023-11-21T05:43:36;10.78;85.67
72650;SHT31;61467;50.674;4.618;2023-11-21T05:46:03;10.79;84.33
72650;SHT31;61467;50.674;4.618;2023-11-21T05:48:31;10.64;84.00
72650;SHT31;61467;50.674;4.618;2023-11-21T05:50:59;10.63;83.81
72650;SHT31;61467;50.674;4.618;2023-11-21T05:53:27;10.48;84.55
72650;SHT31;61467;50.674;4.618;2023-11-21T05:55:55;10.53;84.61
72650;SHT31;61467;50.674;4.618;2023-11-21T05:58:22;10.50;84.59
72650;SHT31;61467;50.674;4.618;2023-11-21T06:00:49;10.53;84.37
72650;SHT31;61467;50.674;4.618;2023-11-21T06:03:16;10.41;84.95
72650;SHT31;61467;50.674;4.618;2023-11-21T06:05:43;10.34;85.20
72650;SHT31;61467;50.674;4.618;2023-11-21T06:08:11;10.38;84.97
72650;SHT31;61467;50.674;4.618;2023-11-21T06:10:38;10.50;84.77
72650;SHT31;61467;50.674;4.618;2023-11-21T06:13:05;10.48;84.86
72650;SHT31;61467;50.674;4.618;2023-11-21T06:15:33;10.57;84.81
72650;SHT31;61467;50.674;4.618;2023-11-21T06:18:00;10.60;84.52
72650;SHT31;61467;50.674;4.618;2023-11-21T06:20:27;10.54;84.65
72650;SHT31;61467;50.674;4.618;2023-11-21T06:22:55;10.53;84.92
72650;SHT31;61467;50.674;4.618;2023-11-21T06:25:23;10.63;84.64
72650;SHT31;61467;50.674;4.618;2023-11-21T06:27:51;10.63;84.62
72650;SHT31;61467;50.674;4.618;2023-11-21T06:30:21;10.65;84.52
72650;SHT31;61467;50.674;4.618;2023-11-21T06:32:48;10.57;84.58
72650;SHT31;61467;50.674;4.618;2023-11-21T06:35:16;10.57;84.84
72650;SHT31;61467;50.674;4.618;2023-11-21T06:37:43;10.60;84.66
72650;SHT31;61467;50.674;4.618;2023-11-21T06:40:13;10.63;84.93
72650;SHT31;61467;50.674;4.618;2023-11-21T06:42:41;10.69;84.47
72650;SHT31;61467;50.674;4.618;2023-11-21T06:45:09;10.74;84.40
72650;SHT31;61467;50.674;4.618;2023-11-21T06:47:37;10.74;84.35
72650;SHT31;61467;50.674;4.618;2023-11-21T06:50:05;10.78;84.21
72650;SHT31;61467;50.674;4.618;2023-11-21T06:52:32;10.75;84.27
72650;SHT31;61467;50.674;4.618;2023-11-21T06:54:59;10.71;84.34
72650;SHT31;61467;50.674;4.618;2023-11-21T06:57:26;10.72;84.57
72650;SHT31;61467;50.674;4.618;2023-11-21T06:59:54;10.78;84.33
72650;SHT31;61467;50.674;4.618;2023-11-21T07:02:22;10.88;84.05
72650;SHT31;61467;50.674;4.618;2023-11-21T07:04:49;10.79;84.08
72650;SHT31;61467;50.674;4.618;2023-11-21T07:07:17;10.75;84.29
72650;SHT31;61467;50.674;4.618;2023-11-21T07:09:44;10.75;84.45
72650;SHT31;61467;50.674;4.618;2023-11-21T07:12:11;10.71;84.70
72650;SHT31;61467;50.674;4.618;2023-11-21T07:14:38;10.61;84.87
72650;SHT31;61467;50.674;4.618;2023-11-21T07:17:10;10.75;84.59
72650;SHT31;61467;50.674;4.618;2023-11-21T07:19:37;10.79;84.48
72650;SHT31;61467;50.674;4.618;2023-11-21T07:22:04;10.79;84.39
72650;SHT31;61467;50.674;4.618;2023-11-21T07:24:32;10.75;84.45
72650;SHT31;61467;50.674;4.618;2023-11-21T07:27:00;10.72;84.44
72650;SHT31;61467;50.674;4.618;2023-11-21T07:29:27;10.72;84.51
72650;SHT31;61467;50.674;4.618;2023-11-21T07:31:55;10.72;84.69
72650;SHT31;61467;50.674;4.618;2023-11-21T07:34:23;10.71;84.79
72650;SHT31;61467;50.674;4.618;2023-11-21T07:36:50;10.79;84.42
72650;SHT31;61467;50.674;4.618;2023-11-21T07:39:17;10.72;84.27
72650;SHT31;61467;50.674;4.618;2023-11-21T07:41:44;10.71;84.52
72650;SHT31;61467;50.674;4.618;2023-11-21T07:44:14;10.64;84.88
72650;SHT31;61467;50.674;4.618;2023-11-21T07:46:42;10.79;84.66
72650;SHT31;61467;50.674;4.618;2023-11-21T07:49:09;10.85;84.48
72650;SHT31;61467;50.674;4.618;2023-11-21T07:51:37;10.74;84.97
72650;SHT31;61467;50.674;4.618;2023-11-21T07:54:04;10.74;84.74
72650;SHT31;61467;50.674;4.618;2023-11-21T07:56:32;10.72;85.08
72650;SHT31;61467;50.674;4.618;2023-11-21T07:58:58;10.57;85.37
72650;SHT31;61467;50.674;4.618;2023-11-21T08:01:25;10.69;85.10
72650;SHT31;61467;50.674;4.618;2023-11-21T08:03:53;10.69;85.22
72650;SHT31;61467;50.674;4.618;2023-11-21T08:06:28;10.64;85.31
72650;SHT31;61467;50.674;4.618;2023-11-21T08:08:56;10.65;85.27
72650;SHT31;61467;50.674;4.618;2023-11-21T08:11:23;10.72;85.24
72650;SHT31;61467;50.674;4.618;2023-11-21T08:13:52;10.75;85.19
72650;SHT31;61467;50.674;4.618;2023-11-21T08:16:18;10.86;84.89
72650;SHT31;61467;50.674;4.618;2023-11-21T08:18:45;10.82;84.91
72650;SHT31;61467;50.674;4.618;2023-11-21T08:21:12;10.79;85.05
72650;SHT31;61467;50.674;4.618;2023-11-21T08:23:39;10.89;84.97
72650;SHT31;61467;50.674;4.618;2023-11-21T08:26:08;10.82;84.75
72650;SHT31;61467;50.674;4.618;2023-11-21T08:28:35;10.94;84.74
72650;SHT31;61467;50.674;4.618;2023-11-21T08:31:02;10.71;85.13
72650;SHT31;61467;50.674;4.618;2023-11-21T08:33:29;10.71;85.72
72650;SHT31;61467;50.674;4.618;2023-11-21T08:35:56;10.72;85.82
72650;SHT31;61467;50.674;4.618;2023-11-21T08:38:24;10.76;85.56
72650;SHT31;61467;50.674;4.618;2023-11-21T08:40:52;10.99;85.44
72650;SHT31;61467;50.674;4.618;2023-11-21T08:43:21;10.95;85.39
72650;SHT31;61467;50.674;4.618;2023-11-21T08:45:47;11.02;85.16
72650;SHT31;61467;50.674;4.618;2023-11-21T08:48:14;11.04;84.91
72650;SHT31;61467;50.674;4.618;2023-11-21T08:50:41;11.08;84.73
72650;SHT31;61467;50.674;4.618;2023-11-21T08:53:09;11.01;84.75
72650;SHT31;61467;50.674;4.618;2023-11-21T08:55:36;10.99;84.71
72650;SHT31;61467;50.674;4.618;2023-11-21T08:58:03;10.91;85.12
72650;SHT31;61467;50.674;4.618;2023-11-21T09:00:33;10.98;84.91
72650;SHT31;61467;50.674;4.618;2023-11-21T09:03:01;11.06;84.91
72650;SHT31;61467;50.674;4.618;2023-11-21T09:05:28;11.11;84.60
72650;SHT31;61467;50.674;4.618;2023-11-21T09:07:55;11.13;84.48
72650;SHT31;61467;50.674;4.618;2023-11-21T09:10:22;11.13;84.66
72650;SHT31;61467;50.674;4.618;2023-11-21T09:12:50;11.18;84.78
72650;SHT31;61467;50.674;4.618;2023-11-21T09:15:18;11.19;84.62
72650;SHT31;61467;50.674;4.618;2023-11-21T09:17:48;11.20;84.74
72650;SHT31;61467;50.674;4.618;2023-11-21T09:20:15;11.25;84.79
72650;SHT31;61467;50.674;4.618;2023-11-21T09:22:42;11.33;84.84
72650;SHT31;61467;50.674;4.618;2023-11-21T09:25:11;11.39;84.74
72650;SHT31;61467;50.674;4.618;2023-11-21T09:27:38;11.37;84.80
72650;SHT31;61467;50.674;4.618;2023-11-21T09:30:06;11.46;84.90
72650;SHT31;61467;50.674;4.618;2023-11-21T09:32:35;11.40;84.67
72650;SHT31;61467;50.674;4.618;2023-11-21T09:35:05;11.30;84.64
72650;SHT31;61467;50.674;4.618;2023-11-21T09:37:33;11.46;84.45
72650;SHT31;61467;50.674;4.618;2023-11-21T09:40:01;11.26;85.02
72650;SHT31;61467;50.674;4.618;2023-11-21T09:42:34;11.37;84.97
72650;SHT31;61467;50.674;4.618;2023-11-21T09:45:09;11.33;85.11
72650;SHT31;61467;50.674;4.618;2023-11-21T09:47:39;11.27;85.16
72650;SHT31;61467;50.674;4.618;2023-11-21T09:50:09;11.20;85.36
72650;SHT31;61467;50.674;4.618;2023-11-21T09:52:42;11.27;85.48
72650;SHT31;61467;50.674;4.618;2023-11-21T09:55:14;11.25;85.50
72650;SHT31;61467;50.674;4.618;2023-11-21T09:57:45;11.36;85.07
72650;SHT31;61467;50.674;4.618;2023-11-21T10:00:14;11.27;85.62
72650;SHT31;61467;50.674;4.618;2023-11-21T10:02:43;11.37;85.28
72650;SHT31;61467;50.674;4.618;2023-11-21T10:05:12;11.56;84.88
72650;SHT31;61467;50.674;4.618;2023-11-21T10:07:39;11.47;85.03
72650;SHT31;61467;50.674;4.618;2023-11-21T10:10:07;11.46;84.97
72650;SHT31;61467;50.674;4.618;2023-11-21T10:12:35;11.56;84.89
72650;SHT31;61467;50.674;4.618;2023-11-21T10:15:07;11.62;85.11
72650;SHT31;61467;50.674;4.618;2023-11-21T10:17:36;11.43;85.47
72650;SHT31;61467;50.674;4.618;2023-11-21T10:20:09;11.53;85.28
72650;SHT31;61467;50.674;4.618;2023-11-21T10:22:40;11.60;85.16
72650;SHT31;61467;50.674;4.618;2023-11-21T10:25:08;11.59;85.40
72650;SHT31;61467;50.674;4.618;2023-11-21T10:27:35;11.60;85.32
72650;SHT31;61467;50.674;4.618;2023-11-21T10:30:02;11.70;85.03
72650;SHT31;61467;50.674;4.618;2023-11-21T10:32:29;11.66;84.97
72650;SHT31;61467;50.674;4.618;2023-11-21T10:34:58;11.62;85.18
72650;SHT31;61467;50.674;4.618;2023-11-21T10:37:31;11.67;85.11
72650;SHT31;61467;50.674;4.618;2023-11-21T10:40:00;11.66;84.98
72650;SHT31;61467;50.674;4.618;2023-11-21T10:42:27;11.70;85.05
72650;SHT31;61467;50.674;4.618;2023-11-21T10:44:54;11.54;85.58
72650;SHT31;61467;50.674;4.618;2023-11-21T10:47:21;11.69;85.25
72650;SHT31;61467;50.674;4.618;2023-11-21T10:49:49;11.63;85.42
72650;SHT31;61467;50.674;4.618;2023-11-21T10:52:18;11.56;85.82
72650;SHT31;61467;50.674;4.618;2023-11-21T10:54:46;11.42;86.04
72650;SHT31;61467;50.674;4.618;2023-11-21T10:57:17;11.22;86.74
72650;SHT31;61467;50.674;4.618;2023-11-21T10:59:47;11.40;86.30
72650;SHT31;61467;50.674;4.618;2023-11-21T11:02:21;11.27;86.57
72650;SHT31;61467;50.674;4.618;2023-11-21T11:04:52;11.39;86.57
72650;SHT31;61467;50.674;4.618;2023-11-21T11:07:21;11.33;86.32
72650;SHT31;61467;50.674;4.618;2023-11-21T11:09:48;11.33;86.29
72650;SHT31;61467;50.674;4.618;2023-11-21T11:12:17;11.43;86.10
72650;SHT31;61467;50.674;4.618;2023-11-21T11:14:44;11.54;85.60
72650;SHT31;61467;50.674;4.618;2023-11-21T11:17:13;11.54;85.63
72650;SHT31;61467;50.674;4.618;2023-11-21T11:19:40;11.57;85.41
72650;SHT31;61467;50.674;4.618;2023-11-21T11:22:15;11.37;85.84
72650;SHT31;61467;50.674;4.618;2023-11-21T11:24:58;11.22;86.23
72650;SHT31;61467;50.674;4.618;2023-11-21T11:27:39;11.13;86.78
72650;SHT31;61467;50.674;4.618;2023-11-21T11:30:16;10.98;87.82
72650;SHT31;61467;50.674;4.618;2023-11-21T11:32:55;10.89;88.11
72650;SHT31;61467;50.674;4.618;2023-11-21T11:35:33;10.92;87.95
72650;SHT31;61467;50.674;4.618;2023-11-21T11:38:01;10.88;88.34
72650;SHT31;61467;50.674;4.618;2023-11-21T11:40:39;11.09;87.61
72650;SHT31;61467;50.674;4.618;2023-11-21T11:43:08;11.25;87.27
72650;SHT31;61467;50.674;4.618;2023-11-21T11:45:35;11.25;87.31
72650;SHT31;61467;50.674;4.618;2023-11-21T11:48:06;11.40;86.60
72650;SHT31;61467;50.674;4.618;2023-11-21T11:50:33;11.57;86.44
72650;SHT31;61467;50.674;4.618;2023-11-21T11:53:13;11.46;86.20
72650;SHT31;61467;50.674;4.618;2023-11-21T11:55:40;11.49;86.32
72650;SHT31;61467;50.674;4.618;2023-11-21T11:58:10;11.47;86.18
72650;SHT31;61467;50.674;4.618;2023-11-21T12:00:37;11.25;86.51
72650;SHT31;61467;50.674;4.618;2023-11-21T12:03:06;11.33;86.55
72650;SHT31;61467;50.674;4.618;2023-11-21T12:05:34;11.43;86.00
72650;SHT31;61467;50.674;4.618;2023-11-21T12:08:05;11.53;85.77
72650;SHT31;61467;50.674;4.618;2023-11-21T12:10:35;11.66;85.38
72650;SHT31;61467;50.674;4.618;2023-11-21T12:13:05;11.46;85.25
72650;SHT31;61467;50.674;4.618;2023-11-21T12:15:35;11.39;85.61
72650;SHT31;61467;50.674;4.618;2023-11-21T12:18:03;11.34;85.81
72650;SHT31;61467;50.674;4.618;2023-11-21T12:20:31;11.29;86.17
72650;SHT31;61467;50.674;4.618;2023-11-21T12:22:59;11.44;85.89
72650;SHT31;61467;50.674;4.618;2023-11-21T12:25:27;11.59;85.43
72650;SHT31;61467;50.674;4.618;2023-11-21T12:27:55;11.60;85.37
72650;SHT31;61467;50.674;4.618;2023-11-21T12:30:23;11.44;85.46
72650;SHT31;61467;50.674;4.618;2023-11-21T12:32:55;11.54;85.41
72650;SHT31;61467;50.674;4.618;2023-11-21T12:35:25;11.69;85.24
72650;SHT31;61467;50.674;4.618;2023-11-21T12:37:52;11.71;85.09
72650;SHT31;61467;50.674;4.618;2023-11-21T12:40:20;11.56;85.22
72650;SHT31;61467;50.674;4.618;2023-11-21T12:42:50;11.66;85.26
72650;SHT31;61467;50.674;4.618;2023-11-21T12:45:19;11.64;85.53
72650;SHT31;61467;50.674;4.618;2023-11-21T12:47:49;11.88;84.92
72650;SHT31;61467;50.674;4.618;2023-11-21T12:50:20;11.83;85.04
72650;SHT31;61467;50.674;4.618;2023-11-21T12:52:49;11.78;85.02
72650;SHT31;61467;50.674;4.618;2023-11-21T12:55:17;11.81;85.33
72650;SHT31;61467;50.674;4.618;2023-11-21T12:57:48;11.98;84.63
72650;SHT31;61467;50.674;4.618;2023-11-21T13:00:16;11.84;84.62
72650;SHT31;61467;50.674;4.618;2023-11-21T13:02:53;11.91;84.69
72650;SHT31;61467;50.674;4.618;2023-11-21T13:05:26;11.88;84.80
72650;SHT31;61467;50.674;4.618;2023-11-21T13:07:57;11.90;84.96
72650;SHT31;61467;50.674;4.618;2023-11-21T13:10:26;11.90;84.57
72650;SHT31;61467;50.674;4.618;2023-11-21T13:12:57;11.70;84.97
72650;SHT31;61467;50.674;4.618;2023-11-21T13:15:27;11.74;85.35
72650;SHT31;61467;50.674;4.618;2023-11-21T13:17:57;11.85;85.06
72650;SHT31;61467;50.674;4.618;2023-11-21T13:20:24;11.91;85.02
72650;SHT31;61467;50.674;4.618;2023-11-21T13:22:53;11.84;84.80
72650;SHT31;61467;50.674;4.618;2023-11-21T13:25:23;11.75;85.01
72650;SHT31;61467;50.674;4.618;2023-11-21T13:27:51;11.85;84.81
72650;SHT31;61467;50.674;4.618;2023-11-21T13:30:18;11.98;84.61
72650;SHT31;61467;50.674;4.618;2023-11-21T13:32:49;11.91;85.00
72650;SHT31;61467;50.674;4.618;2023-11-21T13:35:17;11.93;85.16
72650;SHT31;61467;50.674;4.618;2023-11-21T13:37:50;12.04;84.13
72650;SHT31;61467;50.674;4.618;2023-11-21T13:40:23;12.08;83.93
72650;SHT31;61467;50.674;4.618;2023-11-21T13:42:52;11.95;83.82
72650;SHT31;61467;50.674;4.618;2023-11-21T13:45:22;11.77;84.55
72650;SHT31;61467;50.674;4.618;2023-11-21T13:47:51;11.99;84.06
72650;SHT31;61467;50.674;4.618;2023-11-21T13:50:22;12.01;84.21
72650;SHT31;61467;50.674;4.618;2023-11-21T13:52:52;12.01;83.87
72650;SHT31;61467;50.674;4.618;2023-11-21T13:55:19;11.80;84.48
72650;SHT31;61467;50.674;4.618;2023-11-21T13:57:51;11.83;84.57
72650;SHT31;61467;50.674;4.618;2023-11-21T14:00:18;11.90;84.57
72650;SHT31;61467;50.674;4.618;2023-11-21T14:02:59;11.90;84.24
72650;SHT31;61467;50.674;4.618;2023-11-21T14:05:26;11.80;84.77
72650;SHT31;61467;50.674;4.618;2023-11-21T14:07:55;11.73;84.64
72650;SHT31;61467;50.674;4.618;2023-11-21T14:10:28;11.77;84.58
72650;SHT31;61467;50.674;4.618;2023-11-21T14:13:03;11.88;84.59
72650;SHT31;61467;50.674;4.618;2023-11-21T14:15:31;11.83;84.61
72650;SHT31;61467;50.674;4.618;2023-11-21T14:18:02;11.88;84.46
72650;SHT31;61467;50.674;4.618;2023-11-21T14:20:33;11.97;84.33
72650;SHT31;61467;50.674;4.618;2023-11-21T14:23:02;11.87;84.42
72650;SHT31;61467;50.674;4.618;2023-11-21T14:25:29;11.98;84.35
72650;SHT31;61467;50.674;4.618;2023-11-21T14:27:57;11.97;84.21
72650;SHT31;61467;50.674;4.618;2023-11-21T14:30:25;11.75;84.86
72650;SHT31;61467;50.674;4.618;2023-11-21T14:32:54;11.84;84.78
72650;SHT31;61467;50.674;4.618;2023-11-21T14:35:22;11.81;84.85
72650;SHT31;61467;50.674;4.618;2023-11-21T14:37:49;11.74;85.24
72650;SHT31;61467;50.674;4.618;2023-11-21T14:40:16;11.70;85.28
72650;SHT31;61467;50.674;4.618;2023-11-21T14:42:47;11.88;84.81
72650;SHT31;61467;50.674;4.618;2023-11-21T14:45:15;11.87;84.96
72650;SHT31;61467;50.674;4.618;2023-11-21T14:47:46;11.77;84.62
72650;SHT31;61467;50.674;4.618;2023-11-21T14:50:21;11.70;85.13
72650;SHT31;61467;50.674;4.618;2023-11-21T14:53:06;11.66;85.51
72650;SHT31;61467;50.674;4.618;2023-11-21T14:55:33;11.69;85.32
72650;SHT31;61467;50.674;4.618;2023-11-21T14:58:13;11.49;85.94
72650;SHT31;61467;50.674;4.618;2023-11-21T15:00:45;11.66;85.71
72650;SHT31;61467;50.674;4.618;2023-11-21T15:03:12;11.60;85.66
72650;SHT31;61467;50.674;4.618;2023-11-21T15:05:59;11.69;85.62
72650;SHT31;61467;50.674;4.618;2023-11-21T15:08:35;11.56;85.69
72650;SHT31;61467;50.674;4.618;2023-11-21T15:11:03;11.53;85.95
72650;SHT31;61467;50.674;4.618;2023-11-21T15:13:32;11.46;86.17
72650;SHT31;61467;50.674;4.618;2023-11-21T15:16:01;11.49;86.25
72650;SHT31;61467;50.674;4.618;2023-11-21T15:18:34;11.53;86.07
72650;SHT31;61467;50.674;4.618;2023-11-21T15:21:01;11.42;86.21
72650;SHT31;61467;50.674;4.618;2023-11-21T15:23:29;11.63;85.89
72650;SHT31;61467;50.674;4.618;2023-11-21T15:26:00;11.66;85.65
72650;SHT31;61467;50.674;4.618;2023-11-21T15:28:29;11.69;85.74
72650;SHT31;61467;50.674;4.618;2023-11-21T15:30:57;11.64;85.61
72650;SHT31;61467;50.674;4.618;2023-11-21T15:33:24;11.60;85.76
72650;SHT31;61467;50.674;4.618;2023-11-21T15:35:54;11.67;85.62
72650;SHT31;61467;50.674;4.618;2023-11-21T15:38:21;11.70;85.69